Time;durP1;ratioP1;P1;durP2;ratioP2;P2;SDS_P1;SDS_P2;PMS_P1;PMS_P2;Temp;Humidity;BMP_temperature;BMP_pressure;BME280_temperature;BME280_humidity;BME280_pressure;Samples;Min_cycle;Max_cycle;Signal;HPM_P1;HPM_P2
2021/12/09 00:01:03;;;;;;;16.63;10.32;;;;;;;1.37;100.00;99385.50;6003544;29;20049;-91
2021/12/09 00:04:11;;;;;;;15.60;9.98;;;;;;;1.38;100.00;99379.50;5997992;29;20097;-91
2021/12/09 00:11:07;;;;;;;16.67;9.88;;;;;;;1.40;100.00;99375.94;6001987;29;20041;-92
2021/12/09 00:14:21;;;;;;;13.50;9.50;;;;;;;1.40;100.00;99381.03;6004707;29;20480;-92
2021/12/09 00:17:24;;;;;;;16.40;9.43;;;;;;;1.43;100.00;99378.28;6002352;29;20132;-91
2021/12/09 00:20:26;;;;;;;21.23;10.75;;;;;;;1.43;100.00;99378.28;6003447;29;20095;-92
2021/12/09 00:23:28;;;;;;;14.90;9.40;;;;;;;1.44;100.00;99374.84;6001252;29;20054;-92
2021/12/09 00:26:30;;;;;;;18.00;9.93;;;;;;;1.46;100.00;99367.91;6003370;29;20081;-92
2021/12/09 00:29:33;;;;;;;15.85;9.35;;;;;;;1.47;100.00;99376.41;6003446;29;20069;-91
2021/12/09 00:32:35;;;;;;;14.88;8.70;;;;;;;1.47;100.00;99369.56;6004344;29;20086;-92
2021/12/09 00:35:45;;;;;;;15.82;9.82;;;;;;;1.48;100.00;99375.47;6002207;29;20081;-92
2021/12/09 00:38:47;;;;;;;15.45;9.38;;;;;;;1.50;100.00;99384.69;6004177;29;20671;-92
2021/12/09 00:41:50;;;;;;;15.50;9.95;;;;;;;1.51;100.00;99377.84;6000982;29;20088;-92
2021/12/09 00:44:54;;;;;;;15.80;9.85;;;;;;;1.53;100.00;99386.22;6006814;29;20050;-91
2021/12/09 00:47:57;;;;;;;15.15;9.85;;;;;;;1.54;100.00;99379.38;6002332;29;20046;-92
2021/12/09 00:51:00;;;;;;;19.15;10.55;;;;;;;1.54;100.00;99377.69;6002779;29;20046;-92
2021/12/09 00:54:03;;;;;;;18.17;10.20;;;;;;;1.54;100.00;99376.84;6001797;29;20052;-92
2021/12/09 00:57:05;;;;;;;15.43;10.27;;;;;;;1.53;100.00;99381.13;6004584;29;20114;-91
2021/12/09 01:00:15;;;;;;;20.60;10.48;;;;;;;1.49;100.00;99383.03;6002859;29;20053;-91
2021/12/09 01:03:18;;;;;;;19.38;10.68;;;;;;;1.50;100.00;99381.31;6004291;29;20058;-92
2021/12/09 01:06:20;;;;;;;19.60;10.68;;;;;;;1.48;100.00;99378.84;6003398;29;20049;-92
2021/12/09 01:09:22;;;;;;;18.83;10.38;;;;;;;1.50;100.00;99389.78;6000835;29;20046;-92
2021/12/09 01:12:25;;;;;;;18.33;10.27;;;;;;;1.50;100.00;99383.84;5997503;29;20042;-92
2021/12/09 01:15:27;;;;;;;21.80;11.18;;;;;;;1.48;100.00;99381.38;6000552;29;20134;-92
2021/12/09 01:18:29;;;;;;;16.38;11.20;;;;;;;1.45;100.00;99391.78;5988245;29;20121;-91
2021/12/09 01:21:31;;;;;;;18.50;11.52;;;;;;;1.46;100.00;99390.84;6005142;29;20062;-92
2021/12/09 01:24:33;;;;;;;18.10;11.00;;;;;;;1.45;100.00;99385.88;6004114;29;20145;-91
2021/12/09 01:27:39;;;;;;;19.98;11.75;;;;;;;1.47;100.00;99381.50;6004692;29;20053;-92
2021/12/09 01:30:41;;;;;;;22.73;11.57;;;;;;;1.43;100.00;99392.78;5993054;29;20088;-91
2021/12/09 01:33:43;;;;;;;20.05;11.63;;;;;;;1.40;100.00;99390.41;6002570;29;20070;-91
2021/12/09 01:36:47;;;;;;;26.63;13.73;;;;;;;1.38;100.00;99382.03;6000218;29;20034;-91
2021/12/09 01:39:50;;;;;;;20.35;12.35;;;;;;;1.34;100.00;99376.28;6002538;29;20101;-91
2021/12/09 01:42:53;;;;;;;22.40;12.45;;;;;;;1.31;100.00;99384.13;6002676;29;20113;-92
2021/12/09 01:46:10;;;;;;;24.15;13.10;;;;;;;1.27;100.00;99392.88;6004230;29;20400;-92
2021/12/09 01:49:13;;;;;;;25.40;12.93;;;;;;;1.21;100.00;99393.22;6003412;29;20057;-91
2021/12/09 01:52:15;;;;;;;23.42;14.35;;;;;;;1.18;100.00;99396.78;5999296;29;20512;-92
2021/12/09 01:55:19;;;;;;;23.13;13.77;;;;;;;1.17;100.00;99400.25;6002881;29;20121;-92
2021/12/09 01:58:21;;;;;;;28.15;15.10;;;;;;;1.16;100.00;99397.78;6002158;29;20064;-92
2021/12/09 02:01:24;;;;;;;26.92;15.80;;;;;;;1.14;100.00;99390.22;6001577;29;20042;-92
2021/12/09 02:04:26;;;;;;;27.70;15.43;;;;;;;1.13;100.00;99396.22;6002769;29;20042;-91
2021/12/09 02:07:28;;;;;;;31.35;16.52;;;;;;;1.16;100.00;99405.41;6001077;29;20054;-92
2021/12/09 02:10:31;;;;;;;32.90;16.65;;;;;;;1.12;100.00;99403.94;6000813;29;20038;-92
2021/12/09 02:13:33;;;;;;;33.40;17.80;;;;;;;1.11;100.00;99415.06;6000144;29;20186;-92
2021/12/09 02:16:36;;;;;;;35.40;18.30;;;;;;;1.09;100.00;99404.94;5999612;29;20117;-92
2021/12/09 02:19:43;;;;;;;37.45;18.33;;;;;;;1.05;100.00;99411.97;6001771;29;20122;-91
2021/12/09 02:22:47;;;;;;;36.88;18.33;;;;;;;0.99;100.00;99404.66;6001421;29;20199;-92
2021/12/09 02:25:49;;;;;;;40.85;20.10;;;;;;;0.97;100.00;99408.19;6000827;29;20044;-92
2021/12/09 02:28:53;;;;;;;37.70;19.38;;;;;;;0.94;100.00;99388.81;6002071;29;20128;-92
2021/12/09 02:31:57;;;;;;;40.47;19.42;;;;;;;0.92;100.00;99392.34;6002134;29;20046;-92
2021/12/09 02:34:59;;;;;;;40.40;18.88;;;;;;;0.88;100.00;99403.66;5986371;29;20042;-92
2021/12/09 02:38:00;;;;;;;40.17;17.42;;;;;;;0.86;100.00;99406.28;6001842;29;20046;-92
2021/12/09 02:41:05;;;;;;;34.67;17.85;;;;;;;0.82;100.00;99402.25;6001973;29;20161;-91
2021/12/09 02:44:12;;;;;;;35.60;19.20;;;;;;;0.83;100.00;99414.91;6002100;29;20038;-92
2021/12/09 02:47:14;;;;;;;38.30;18.02;;;;;;;0.82;100.00;99412.44;5998204;29;20080;-91
2021/12/09 02:50:16;;;;;;;37.90;18.17;;;;;;;0.79;100.00;99410.06;5999014;29;20046;-92
2021/12/09 02:53:19;;;;;;;39.13;18.17;;;;;;;0.81;100.00;99410.81;6001419;29;20079;-91
2021/12/09 02:56:21;;;;;;;44.25;19.77;;;;;;;0.81;100.00;99414.16;6000699;29;20050;-92
2021/12/09 02:59:25;;;;;;;39.08;19.10;;;;;;;0.82;100.00;99417.53;6002355;29;20057;-91
2021/12/09 03:02:27;;;;;;;38.08;18.77;;;;;;;0.79;100.00;99418.53;6000140;29;20055;-92
2021/12/09 03:05:29;;;;;;;40.03;18.45;;;;;;;0.78;100.00;99421.19;5999998;29;20042;-91
2021/12/09 03:08:41;;;;;;;38.63;18.63;;;;;;;0.74;100.00;99415.41;6002155;29;20042;-91
2021/12/09 03:11:47;;;;;;;42.95;20.13;;;;;;;0.73;100.00;99415.53;6000776;29;20062;-91
2021/12/09 03:14:54;;;;;;;43.33;20.58;;;;;;;0.71;100.00;99415.59;6000429;29;20437;-92
2021/12/09 03:17:56;;;;;;;44.80;20.63;;;;;;;0.69;100.00;99402.13;6002124;29;20428;-91
2021/12/09 03:20:58;;;;;;;44.70;20.92;;;;;;;0.67;100.00;99406.47;5998248;29;20041;-91
2021/12/09 03:24:03;;;;;;;46.63;20.35;;;;;;;0.68;100.00;99403.03;6004825;29;20428;-92
2021/12/09 03:27:06;;;;;;;51.50;20.70;;;;;;;0.70;100.00;99405.50;6005032;29;20485;-91
2021/12/09 03:30:12;;;;;;;45.72;20.85;;;;;;;0.71;100.00;99412.25;6006458;29;20058;-91
2021/12/09 03:33:28;;;;;;;45.08;20.25;;;;;;;0.71;100.00;99407.16;6006439;29;20166;-91
2021/12/09 03:36:30;;;;;;;50.08;21.40;;;;;;;0.70;100.00;99408.88;6004567;29;20078;-91
2021/12/09 03:39:34;;;;;;;43.47;19.38;;;;;;;0.69;100.00;99421.69;6003646;29;20125;-91
2021/12/09 03:42:39;;;;;;;45.88;20.70;;;;;;;0.72;100.00;99419.81;5999742;29;20054;-92
2021/12/09 03:45:41;;;;;;;48.05;20.48;;;;;;;0.78;100.00;99429.63;6006073;29;20111;-91
2021/12/09 03:48:44;;;;;;;46.65;21.15;;;;;;;0.77;100.00;99420.38;6005819;29;20113;-91
2021/12/09 03:51:46;;;;;;;41.58;19.98;;;;;;;0.80;100.00;99417.63;6006246;29;20069;-92
2021/12/09 03:54:49;;;;;;;47.40;21.08;;;;;;;0.83;100.00;99419.19;6003843;29;20046;-92
2021/12/09 03:57:51;;;;;;;52.67;21.33;;;;;;;0.85;100.00;99417.38;6003792;29;20137;-91
2021/12/09 04:00:53;;;;;;;46.42;20.35;;;;;;;0.83;100.00;99414.09;6000652;29;20057;-91
2021/12/09 04:03:55;;;;;;;44.05;20.90;;;;;;;0.85;100.00;99419.94;6001799;29;20041;-92
2021/12/09 04:07:05;;;;;;;53.83;22.60;;;;;;;0.81;100.00;99403.16;5998832;29;20046;-91
2021/12/09 04:10:08;;;;;;;43.42;20.55;;;;;;;0.78;100.00;99413.53;5999523;29;20416;-91
2021/12/09 04:13:11;;;;;;;49.92;21.30;;;;;;;0.78;100.00;99416.09;6001576;29;20050;-91
2021/12/09 04:16:14;;;;;;;43.28;19.13;;;;;;;0.78;100.00;99418.63;6004405;29;20042;-91
2021/12/09 04:19:16;;;;;;;54.35;22.92;;;;;;;0.77;100.00;99416.97;6004852;29;20496;-91
2021/12/09 04:22:20;;;;;;;57.88;23.88;;;;;;;0.78;100.00;99416.91;6004903;29;20042;-92
2021/12/09 04:25:24;;;;;;;48.28;20.38;;;;;;;0.79;100.00;99415.97;6005233;29;20056;-91
2021/12/09 04:28:26;;;;;;;54.67;23.50;;;;;;;0.79;100.00;99415.97;6004659;29;20520;-92
2021/12/09 04:31:28;;;;;;;53.65;22.38;;;;;;;0.80;100.00;99420.19;6000603;29;20150;-91
2021/12/09 04:34:31;;;;;;;56.85;22.05;;;;;;;0.74;100.00;99420.50;6004956;29;20507;-91
2021/12/09 04:37:34;;;;;;;54.33;22.95;;;;;;;0.76;100.00;99417.88;6001988;29;20050;-91
2021/12/09 04:40:36;;;;;;;56.30;23.15;;;;;;;0.64;100.00;99414.28;6004599;29;20086;-91
2021/12/09 04:43:40;;;;;;;48.35;21.80;;;;;;;0.55;100.00;99410.56;6004959;29;20045;-91
2021/12/09 04:46:42;;;;;;;51.63;21.17;;;;;;;0.48;100.00;99411.78;6002956;29;20052;-91
2021/12/09 04:49:47;;;;;;;54.40;21.73;;;;;;;0.44;100.00;99412.84;6003433;29;20049;-91
2021/12/09 04:52:49;;;;;;;52.72;21.60;;;;;;;0.49;100.00;99408.34;6002667;29;20053;-91
2021/12/09 04:55:51;;;;;;;51.65;22.85;;;;;;;0.50;100.00;99426.97;6003517;29;20412;-91
2021/12/09 04:58:53;;;;;;;51.85;21.42;;;;;;;0.53;100.00;99424.28;6003909;29;20210;-91
2021/12/09 05:01:55;;;;;;;53.58;22.45;;;;;;;0.56;100.00;99434.28;6003651;29;20412;-91
2021/12/09 05:04:58;;;;;;;55.30;21.80;;;;;;;0.57;100.00;99433.38;6001387;29;20077;-91
2021/12/09 05:08:00;;;;;;;50.65;21.55;;;;;;;0.61;100.00;99443.31;6004467;29;20089;-91
2021/12/09 05:11:26;;;;;;;51.40;23.02;;;;;;;0.62;100.00;99442.41;6004130;29;20126;-92
2021/12/09 05:14:28;;;;;;;52.08;22.50;;;;;;;0.66;100.00;99457.50;6000533;29;20053;-91
2021/12/09 05:17:30;;;;;;;53.25;21.33;;;;;;;0.67;100.00;99452.31;6002872;29;20107;-91
2021/12/09 05:20:32;;;;;;;57.03;22.00;;;;;;;0.66;100.00;99452.41;6003663;29;20042;-91
2021/12/09 05:23:36;;;;;;;50.80;22.13;;;;;;;0.62;100.00;99457.69;6003355;29;20054;-91
2021/12/09 05:26:52;;;;;;;53.55;21.75;;;;;;;0.66;100.00;99460.06;6001031;29;20045;-91
2021/12/09 05:30:06;;;;;;;56.78;22.08;;;;;;;0.73;100.00;99453.72;6003552;29;20052;-91
2021/12/09 05:33:08;;;;;;;58.50;22.95;;;;;;;0.73;100.00;99453.72;6001719;29;20057;-91
2021/12/09 05:36:11;;;;;;;60.95;23.92;;;;;;;0.73;100.00;99457.09;6003045;29;20046;-91
2021/12/09 05:39:14;;;;;;;56.30;22.08;;;;;;;0.74;100.00;99461.25;6001608;29;20060;-91
2021/12/09 05:42:19;;;;;;;59.78;22.88;;;;;;;0.76;100.00;99466.28;6002404;29;20057;-91
2021/12/09 05:45:21;;;;;;;57.05;24.42;;;;;;;0.80;100.00;99472.84;6001428;29;20034;-91
2021/12/09 05:48:23;;;;;;;59.65;23.42;;;;;;;0.80;100.00;99465.22;5999833;29;20053;-91
2021/12/09 05:51:26;;;;;;;58.05;23.08;;;;;;;0.75;100.00;99468.00;6001543;29;20054;-91
2021/12/09 05:54:28;;;;;;;56.67;23.77;;;;;;;0.77;100.00;99465.38;5995395;29;20594;-91
2021/12/09 05:57:46;;;;;;;61.40;23.65;;;;;;;0.74;100.00;99461.25;6001999;29;20150;-91
2021/12/09 06:00:51;;;;;;;62.83;24.20;;;;;;;0.75;100.00;99457.81;6000656;29;20076;-91
2021/12/09 06:03:53;;;;;;;53.50;24.00;;;;;;;0.76;100.00;99468.81;6003131;29;20056;-91
2021/12/09 06:06:55;;;;;;;59.42;23.45;;;;;;;0.78;100.00;99483.13;6002368;29;20046;-91
2021/12/09 06:10:00;;;;;;;58.50;23.17;;;;;;;0.84;100.00;99487.03;5998465;29;20050;-91
2021/12/09 06:13:02;;;;;;;61.42;25.05;;;;;;;0.82;100.00;99488.84;6001217;29;20050;-91
2021/12/09 06:16:06;;;;;;;54.35;22.77;;;;;;;0.81;100.00;99498.22;6001776;29;20099;-91
2021/12/09 06:19:09;;;;;;;55.13;22.90;;;;;;;0.81;100.00;99494.88;6015561;29;20058;-91
2021/12/09 06:22:10;;;;;;;58.75;24.25;;;;;;;0.83;100.00;99498.16;5998553;29;20054;-91
2021/12/09 06:25:17;;;;;;;61.78;24.35;;;;;;;0.85;100.00;99504.81;6002325;29;20052;-91
2021/12/09 06:28:20;;;;;;;61.08;22.73;;;;;;;0.92;100.00;99504.44;5999828;29;20053;-91
2021/12/09 06:31:22;;;;;;;64.78;24.65;;;;;;;0.89;100.00;99518.19;6001598;29;20042;-91
2021/12/09 06:34:38;;;;;;;57.85;23.38;;;;;;;0.85;100.00;99509.09;6000560;29;20046;-91
2021/12/09 06:37:45;;;;;;;67.53;24.73;;;;;;;0.83;100.00;99513.44;6001860;29;20522;-91
2021/12/09 06:40:47;;;;;;;62.45;23.85;;;;;;;0.83;100.00;99500.69;6001950;29;20060;-91
2021/12/09 06:43:49;;;;;;;65.32;24.25;;;;;;;0.83;100.00;99505.78;6002238;29;20052;-91
2021/12/09 06:46:55;;;;;;;66.88;24.83;;;;;;;0.82;100.00;99509.22;6000261;29;20500;-91
2021/12/09 06:49:58;;;;;;;63.97;25.13;;;;;;;0.87;100.00;99504.72;6002076;29;20049;-91
2021/12/09 06:53:00;;;;;;;61.67;23.90;;;;;;;0.83;100.00;99495.59;6001652;29;20041;-91
2021/12/09 06:56:03;;;;;;;62.00;23.17;;;;;;;0.83;100.00;99501.50;5998631;29;20504;-91
2021/12/09 06:59:06;;;;;;;64.03;23.60;;;;;;;0.81;100.00;99502.50;6001827;29;20527;-91
2021/12/09 07:02:10;;;;;;;60.97;23.48;;;;;;;0.81;100.00;99512.69;5999351;29;20038;-91
2021/12/09 07:05:15;;;;;;;63.60;24.63;;;;;;;0.79;100.00;99507.66;6001642;29;20551;-91
2021/12/09 07:08:18;;;;;;;58.50;23.92;;;;;;;0.82;100.00;99499.88;6000607;29;20035;-91
2021/12/09 07:11:20;;;;;;;57.85;22.52;;;;;;;0.83;100.00;99503.25;6000370;29;20064;-91
2021/12/09 07:14:22;;;;;;;58.88;23.85;;;;;;;0.85;100.00;99498.91;5984717;29;20041;-91
2021/12/09 07:17:25;;;;;;;53.45;22.25;;;;;;;0.86;100.00;99500.53;6000064;29;20053;-91
2021/12/09 07:20:27;;;;;;;70.50;24.10;;;;;;;0.86;100.00;99497.97;6000171;29;20128;-91
2021/12/09 07:23:29;;;;;;;62.40;21.80;;;;;;;0.85;100.00;99511.63;6001275;29;20060;-91
2021/12/09 07:26:32;;;;;;;54.15;23.20;;;;;;;0.86;100.00;99513.25;6001773;29;20086;-91
2021/12/09 07:29:34;;;;;;;60.25;22.05;;;;;;;0.88;100.00;99521.66;5998334;29;20061;-91
2021/12/09 07:32:37;;;;;;;55.28;22.02;;;;;;;0.85;100.00;99527.72;6001600;29;20053;-92
2021/12/09 07:35:40;;;;;;;58.88;22.90;;;;;;;0.86;100.00;99536.19;6001307;29;20046;-91
2021/12/09 07:38:45;;;;;;;62.28;22.92;;;;;;;0.86;100.00;99542.09;6001198;29;20061;-91
2021/12/09 07:41:47;;;;;;;60.22;22.42;;;;;;;0.88;100.00;99549.66;6000952;29;20162;-91
2021/12/09 07:44:52;;;;;;;60.97;23.48;;;;;;;0.90;100.00;99555.50;5999686;29;20419;-91
2021/12/09 07:47:54;;;;;;;56.35;24.50;;;;;;;0.97;100.00;99553.41;5976734;29;20144;-91
2021/12/09 07:50:56;;;;;;;66.20;25.17;;;;;;;0.99;100.00;99552.44;5998057;29;20109;-91
2021/12/09 07:53:59;;;;;;;64.70;26.60;;;;;;;1.04;100.00;99549.63;6001106;29;20527;-91
2021/12/09 07:57:08;;;;;;;60.05;24.85;;;;;;;1.02;100.00;99554.03;6000218;29;20057;-91
2021/12/09 08:00:31;;;;;;;61.67;24.58;;;;;;;1.04;100.00;99554.72;5998021;29;20080;-91
2021/12/09 08:03:34;;;;;;;64.40;24.10;;;;;;;1.03;100.00;99545.47;5983082;29;20050;-91
2021/12/09 08:06:36;;;;;;;64.72;24.35;;;;;;;1.05;100.00;99543.66;6000776;29;20194;-91
2021/12/09 08:09:38;;;;;;;72.43;25.90;;;;;;;1.07;100.00;99540.09;6005067;29;20074;-91
2021/12/09 08:12:41;;;;;;;68.97;26.00;;;;;;;1.10;100.00;99540.84;6002326;29;20046;-91
2021/12/09 08:16:00;;;;;;;69.82;27.45;;;;;;;1.16;100.00;99543.03;6007209;29;20524;-91
2021/12/09 08:19:04;;;;;;;66.63;25.05;;;;;;;1.16;100.00;99535.41;6003074;29;20046;-91
2021/12/09 08:22:08;;;;;;;59.05;25.20;;;;;;;1.19;100.00;99536.06;6003130;29;20403;-91
2021/12/09 08:25:13;;;;;;;62.53;25.45;;;;;;;1.25;100.00;99537.44;6004990;29;20058;-91
2021/12/09 08:28:15;;;;;;;69.60;25.75;;;;;;;1.27;100.00;99535.63;6003567;29;20050;-91
2021/12/09 08:31:18;;;;;;;58.55;25.05;;;;;;;1.23;100.00;99546.88;6003209;29;20046;-91
2021/12/09 08:34:19;;;;;;;65.72;25.85;;;;;;;1.18;100.00;99543.78;6003167;29;20060;-91
2021/12/09 08:37:29;;;;;;;63.47;24.98;;;;;;;1.17;100.00;99542.13;6004315;29;20041;-91
2021/12/09 08:40:33;;;;;;;67.25;26.27;;;;;;;1.21;100.00;99541.88;6003308;29;20050;-91
2021/12/09 08:43:37;;;;;;;68.93;26.83;;;;;;;1.26;100.00;99544.16;6002972;29;20050;-91
2021/12/09 08:46:43;;;;;;;67.55;24.95;;;;;;;1.37;100.00;99546.94;6005435;29;20045;-91
2021/12/09 08:49:46;;;;;;;67.97;27.10;;;;;;;1.41;100.00;99538.19;6003540;29;20129;-91
2021/12/09 08:52:51;;;;;;;66.70;25.23;;;;;;;1.46;100.00;99546.41;6000637;29;20042;-91
2021/12/09 08:55:54;;;;;;;65.30;26.13;;;;;;;1.51;100.00;99546.94;6002858;29;20136;-91
2021/12/09 08:58:57;;;;;;;62.70;23.85;;;;;;;1.54;100.00;99555.34;6004405;29;20046;-91
2021/12/09 09:01:59;;;;;;;65.53;26.55;;;;;;;1.58;100.00;99554.28;6004272;29;20133;-91
2021/12/09 09:05:04;;;;;;;59.60;24.25;;;;;;;1.57;100.00;99565.38;6005058;29;20042;-91
2021/12/09 09:08:06;;;;;;;60.47;24.45;;;;;;;1.56;100.00;99564.53;6003047;29;20522;-91
2021/12/09 09:11:09;;;;;;;59.00;24.50;;;;;;;1.65;100.00;99565.75;5999598;29;20056;-91
2021/12/09 09:14:11;;;;;;;59.85;23.38;;;;;;;1.71;100.00;99571.34;5997941;29;20061;-91
2021/12/09 09:17:14;;;;;;;63.58;23.90;;;;;;;1.76;100.00;99565.94;5995161;29;20086;-91
2021/12/09 09:20:19;;;;;;;58.72;22.88;;;;;;;1.80;100.00;99574.25;5992673;29;20471;-91
2021/12/09 09:23:22;;;;;;;59.67;24.05;;;;;;;1.86;100.00;99573.88;6001326;29;20054;-91
2021/12/09 09:26:26;;;;;;;54.80;21.52;;;;;;;1.90;100.00;99575.38;6004906;29;20038;-91
2021/12/09 09:29:32;;;;;;;57.72;22.30;;;;;;;1.94;100.00;99587.84;6004486;29;20046;-91
2021/12/09 09:32:35;;;;;;;59.50;23.17;;;;;;;1.97;100.00;99589.41;6005521;29;20048;-91
2021/12/09 09:35:38;;;;;;;55.20;22.95;;;;;;;2.02;100.00;99578.94;5999759;29;20645;-91
2021/12/09 09:38:40;;;;;;;59.55;23.75;;;;;;;2.07;100.00;99584.59;5995358;29;20042;-91
2021/12/09 09:42:16;;;;;;;60.03;23.17;;;;;;;2.08;100.00;99587.03;5994707;29;20056;-92
2021/12/09 09:45:18;;;;;;;53.72;23.35;;;;;;;2.20;100.00;99582.94;5992861;29;20046;-91
2021/12/09 09:48:35;;;;;;;55.85;22.58;;;;;;;2.28;100.00;99583.28;5998327;29;20087;-91
2021/12/09 09:51:38;;;;;;;50.00;21.88;;;;;;;2.34;100.00;99582.94;6004906;29;20190;-91
2021/12/09 09:54:55;;;;;;;51.20;22.33;;;;;;;2.36;100.00;99572.63;6001838;29;20057;-91
2021/12/09 09:57:57;;;;;;;52.45;22.92;;;;;;;2.42;100.00;99572.25;6004666;29;20049;-91
2021/12/09 10:01:00;;;;;;;54.38;22.67;;;;;;;2.48;100.00;99565.94;6002365;29;20062;-91
2021/12/09 10:04:13;;;;;;;58.08;24.05;;;;;;;2.50;100.00;99564.94;6004447;29;20216;-92
2021/12/09 10:07:21;;;;;;;48.20;22.63;;;;;;;2.50;100.00;99564.13;6003795;29;20053;-91
2021/12/09 10:10:23;;;;;;;52.58;22.02;;;;;;;2.47;100.00;99570.25;5990518;29;20058;-91
2021/12/09 10:13:31;;;;;;;48.00;20.77;;;;;;;2.41;100.00;99575.75;6003467;29;20129;-91
2021/12/09 10:16:34;;;;;;;51.47;21.42;;;;;;;2.34;100.00;99572.72;5990763;29;20042;-91
2021/12/09 10:19:47;;;;;;;49.97;20.83;;;;;;;2.30;100.00;99557.69;6001286;29;20061;-91
2021/12/09 10:22:49;;;;;;;47.80;20.33;;;;;;;2.27;100.00;99557.88;6004072;29;20050;-91
2021/12/09 10:26:11;;;;;;;49.65;22.50;;;;;;;2.30;100.00;99563.59;6003146;29;20426;-91
2021/12/09 10:29:44;;;;;;;47.83;20.60;;;;;;;2.32;100.00;99549.00;6002658;29;20066;-92
2021/12/09 10:32:49;;;;;;;46.45;20.35;;;;;;;2.39;100.00;99546.09;6002955;29;20172;-91
2021/12/09 10:35:51;;;;;;;50.35;21.33;;;;;;;2.44;100.00;99547.47;6001251;29;20049;-91
2021/12/09 10:39:30;;;;;;;44.78;20.67;;;;;;;2.54;100.00;99547.72;5994973;29;20515;-92
2021/12/09 10:42:39;;;;;;;48.00;21.27;;;;;;;2.62;100.00;99549.78;6002259;29;20050;-91
2021/12/09 10:45:41;;;;;;;45.58;20.48;;;;;;;2.68;100.00;99544.28;6003326;29;20686;-91
2021/12/09 10:48:44;;;;;;;46.22;22.30;;;;;;;2.72;100.00;99544.00;6002051;29;20086;-92
2021/12/09 10:51:58;;;;;;;49.63;20.23;;;;;;;2.84;100.00;99533.94;6002995;29;20073;-92
2021/12/09 10:55:17;;;;;;;45.20;20.60;;;;;;;2.96;100.00;99549.34;5999504;29;20045;-91
2021/12/09 10:58:22;;;;;;;40.88;18.85;;;;;;;3.12;100.00;99541.50;5996836;29;20069;-92
2021/12/09 11:01:25;;;;;;;48.10;19.50;;;;;;;3.29;100.00;99537.84;6001830;29;20046;-91
2021/12/09 11:04:27;;;;;;;46.40;21.08;;;;;;;3.40;100.00;99534.59;5990854;29;20048;-92
2021/12/09 11:07:31;;;;;;;42.65;19.17;;;;;;;3.49;100.00;99543.41;5996688;29;20549;-91
2021/12/09 11:10:33;;;;;;;46.40;20.45;;;;;;;3.52;100.00;99528.69;5992050;29;20218;-92
2021/12/09 11:13:35;;;;;;;42.40;19.83;;;;;;;3.54;100.00;99536.25;5998500;29;20050;-92
2021/12/09 11:16:42;;;;;;;43.42;20.08;;;;;;;3.52;100.00;99531.22;5991306;29;20050;-91
2021/12/09 11:19:58;;;;;;;40.88;19.02;;;;;;;3.63;100.00;99522.88;5990118;29;20049;-92
2021/12/09 11:23:36;;;;;;;39.67;19.25;;;;;;;3.67;100.00;99514.06;5988522;29;20053;-91
2021/12/09 11:27:12;;;;;;;38.40;18.30;;;;;;;3.72;100.00;99521.44;6002660;29;20049;-92
2021/12/09 11:30:16;;;;;;;37.15;17.63;;;;;;;3.62;100.00;99524.59;6001523;29;20066;-92
2021/12/09 11:33:35;;;;;;;39.20;19.70;;;;;;;3.57;100.00;99521.50;6004861;29;20054;-91
2021/12/09 11:36:43;;;;;;;38.75;18.48;;;;;;;3.50;100.00;99519.47;5979595;29;20420;-92
2021/12/09 11:39:47;;;;;;;39.15;19.45;;;;;;;3.48;100.00;99519.59;6001252;29;20492;-92
2021/12/09 11:43:00;;;;;;;35.67;17.10;;;;;;;3.62;100.00;99513.53;6005815;29;20054;-92
2021/12/09 11:46:02;;;;;;;37.25;18.83;;;;;;;3.81;100.00;99513.13;6008042;29;20580;-91
2021/12/09 11:49:05;;;;;;;35.03;17.05;;;;;;;3.92;100.00;99499.59;6007075;29;20416;-92
2021/12/09 11:52:08;;;;;;;32.97;16.15;;;;;;;3.90;100.00;99486.94;6007801;29;20514;-92
2021/12/09 11:55:13;;;;;;;37.28;17.83;;;;;;;3.84;100.00;99489.88;6004842;29;20057;-91
2021/12/09 11:58:27;;;;;;;38.20;18.58;;;;;;;3.71;100.00;99486.53;6005560;29;20054;-91
2021/12/09 12:13:37;;;;;;;36.38;17.85;;;;;;;3.44;100.00;99467.78;5997532;29;20062;-91
2021/12/09 12:17:01;;;;;;;32.95;18.30;;;;;;;3.42;100.00;99466.25;6007148;29;20073;-92
2021/12/09 12:23:41;;;;;;;37.05;17.35;;;;;;;3.49;100.00;99482.03;6003433;29;20151;-91
2021/12/09 12:33:33;;;;;;;28.80;14.10;;;;;;;3.66;100.00;99477.41;6003596;29;20156;-91
2021/12/09 12:37:15;;;;;;;28.45;15.25;;;;;;;3.62;100.00;99477.72;5995733;29;20056;-92
2021/12/09 12:40:14;;;;;;;27.13;13.40;;;;;;;3.58;100.00;99474.56;6006690;29;20543;-91
2021/12/09 12:43:53;;;;;;;26.75;14.13;;;;;;;3.58;100.00;99468.63;6006376;29;20092;-91
2021/12/09 12:47:13;;;;;;;27.90;14.50;;;;;;;3.60;100.00;99469.31;6005958;29;20520;-91
2021/12/09 12:50:17;;;;;;;29.83;13.85;;;;;;;3.57;100.00;99465.22;6005991;29;20408;-91
2021/12/09 12:53:37;;;;;;;28.98;14.70;;;;;;;3.55;100.00;99453.47;6003820;29;20484;-91
2021/12/09 12:57:17;;;;;;;27.20;13.40;;;;;;;3.52;100.00;99459.59;6004532;29;20049;-92
2021/12/09 13:00:42;;;;;;;24.88;12.77;;;;;;;3.50;100.00;99460.63;6006097;29;20066;-91
2021/12/09 13:03:51;;;;;;;27.27;13.38;;;;;;;3.44;100.00;99459.31;6004289;29;20054;-92
2021/12/09 13:06:59;;;;;;;24.35;11.95;;;;;;;3.42;100.00;99461.94;6004224;29;20599;-92
2021/12/09 13:14:05;;;;;;;21.08;11.07;;;;;;;3.42;100.00;99466.25;5997662;29;20142;-92
2021/12/09 13:20:37;;;;;;;24.15;10.77;;;;;;;3.38;100.00;99464.81;6006083;29;20046;-92
2021/12/09 13:23:42;;;;;;;19.40;9.82;;;;;;;3.34;100.00;99468.50;5992686;29;20065;-92
2021/12/09 13:31:10;;;;;;;20.27;9.45;;;;;;;3.23;100.00;99464.13;6005312;29;20060;-87
2021/12/09 13:34:23;;;;;;;17.48;8.38;;;;;;;3.15;100.00;99464.59;6005179;29;20110;-92
2021/12/09 13:50:56;;;;;;;12.77;5.60;;;;;;;2.64;100.00;99484.09;6001914;29;20152;-92
2021/12/09 13:54:23;;;;;;;15.00;6.10;;;;;;;2.54;100.00;99479.56;5993710;29;20529;-92
2021/12/09 13:57:47;;;;;;;17.58;6.07;;;;;;;2.50;100.00;99478.09;5995598;29;20053;-92
2021/12/09 14:00:51;;;;;;;16.30;5.40;;;;;;;2.50;100.00;99484.97;6001685;29;20053;-92
2021/12/09 14:03:54;;;;;;;12.32;5.68;;;;;;;2.49;100.00;99483.31;5997870;29;20052;-92
2021/12/09 14:10:23;;;;;;;11.68;5.50;;;;;;;2.55;100.00;99495.69;5995565;29;20416;-92
2021/12/09 14:13:26;;;;;;;19.70;5.53;;;;;;;2.63;100.00;99493.47;5990431;29;20121;-92
2021/12/09 14:23:10;;;;;;;12.85;4.63;;;;;;;2.97;100.00;99504.13;5992197;29;20084;-92
2021/12/09 14:26:15;;;;;;;15.32;5.40;;;;;;;3.09;100.00;99494.88;5991412;29;20611;-92
2021/12/09 14:29:17;;;;;;;15.18;4.97;;;;;;;3.21;100.00;99494.88;5994161;29;20552;-92
2021/12/09 14:32:25;;;;;;;17.27;5.10;;;;;;;3.30;100.00;99498.56;5991873;29;20565;-92
2021/12/09 14:35:48;;;;;;;12.20;5.60;;;;;;;3.38;100.00;99491.22;5996478;29;20628;-92
2021/12/09 14:38:50;;;;;;;13.50;5.18;;;;;;;3.47;100.00;99494.09;5992395;29;20542;-92
2021/12/09 14:42:21;;;;;;;17.40;5.90;;;;;;;3.41;100.00;99498.69;5995442;29;20056;-92
2021/12/09 14:45:28;;;;;;;10.27;4.95;;;;;;;3.29;100.00;99501.25;5993193;29;20046;-92
2021/12/09 14:48:41;;;;;;;14.82;5.22;;;;;;;3.20;100.00;99508.56;5996913;29;20565;-92
2021/12/09 14:51:45;;;;;;;13.43;4.55;;;;;;;3.16;100.00;99512.25;6001323;29;20057;-92
2021/12/09 14:54:47;;;;;;;13.57;5.15;;;;;;;3.14;100.00;99508.97;5994889;29;20500;-92
2021/12/09 14:57:58;;;;;;;12.98;4.78;;;;;;;3.14;100.00;99515.84;5999021;29;20046;-92
2021/12/09 15:01:10;;;;;;;13.38;5.15;;;;;;;3.13;100.00;99509.91;5995244;29;20408;-92
2021/12/09 15:04:17;;;;;;;11.45;4.68;;;;;;;3.12;100.00;99515.13;5991213;29;20046;-92
2021/12/09 15:07:45;;;;;;;18.38;4.78;;;;;;;3.19;100.00;99512.06;5993124;29;20045;-92
2021/12/09 15:10:53;;;;;;;11.30;4.95;;;;;;;3.14;100.00;99505.63;6000767;29;20054;-92
2021/12/09 15:13:55;;;;;;;13.15;5.43;;;;;;;3.11;100.00;99514.31;5996662;29;20393;-92
2021/12/09 15:17:08;;;;;;;11.45;5.32;;;;;;;3.09;100.00;99503.34;5985515;29;20049;-92
2021/12/09 15:20:12;;;;;;;15.30;5.05;;;;;;;3.08;100.00;99509.38;5997077;29;20468;-92